Skeena-Queen Charlotte E, British Columbia

4:11 AM PDT on September 01, 2015 (GMT -0700)
Sandspit | | Change Station
CLOSE
Current Station
Airport
Location: Sandspit,
Elevation: 20 ft
Nearby Weather Stations

Elev 20 ft 53.25 °N, 131.81 °W | Updated 11 minutes ago

Light Rain
Light Rain
50 °F
Feels Like 50 °F
N
12
Wind Variable Wind from WSW
Gusts 17 mph

Today
High -- | Low -- °F
--% Chance of Precip.
Yesterday
High -- | Low -- °F
Precip. -- in
6:56 AM 8:35 PM
Waning Gibbous, 89% visible
Pressure 29.49 in
Visibility 9.0 miles
Clouds Mostly Cloudy 6000 ft
Mostly Cloudy 8200 ft
Overcast 11000 ft
Dew Point 46 °F
Humidity 87%
Rainfall 0.00 in
Snow Depth Not available.
UV 0 out of 12
Pollen Not available.
Air Quality Not available.
Flu Activity Not available.
METAR CYZP 011100Z AUTO 25010G15KT 180V260 9SM -RA BKN060 BKN082 OVC110 10/08 A2948 RMK SLP984
Pressure 29.49 in
Visibility 9.0 miles
Clouds Mostly Cloudy 6000 ft
Mostly Cloudy 8200 ft
Overcast 11000 ft
Dew Point 46 °F
Humidity 87%
Rainfall 0.00 in
Snow Depth Not available.
UV 0 out of 12
Pollen Not available.
Air Quality Not available.
Flu Activity Not available.
METAR CYZP 011100Z AUTO 25010G15KT 180V260 9SM -RA BKN060 BKN082 OVC110 10/08 A2948 RMK SLP984

10-Day Weather Forecast

×

Almanac

Astronomy

Sep. 01, 2015 Rise Set
Actual Time
Civil Twilight
Nautical Twilight
Astronomical Twilight
Moon
Length of Visible Light
Length of Day
Tomorrow will be .
, % of the Moon is Illuminated

Today's Extremes

Country Highs Country Lows

Community

WunderPhotos

Upload Photos

1,851,501 photos uploaded!

WunderBlogs® & News

Nearby

Air Quality

  Air Quality AQ Index Pollutant
Not available.

Snow Depth

Station Depth Elevation

Earthquake Activity

City Distance Mag. Time & Date
Minimum magnitude displayed is 2.5.

Coastal Water Temperatures

Place Temperature

Stations

Nearby Weather Stations

Station Location Temp. Windchill Dew Point Humidity Wind Precip. Elev Updated Type